Time;durP1;ratioP1;P1;durP2;ratioP2;P2;SDS_P1;SDS_P2;PMS_P1;PMS_P2;Temp;Humidity;BMP_temperature;BMP_pressure;BME280_temperature;BME280_humidity;BME280_pressure;Samples;Min_cycle;Max_cycle;Signal;HPM_P1;HPM_P2
2023/11/15 00:01:30;;;;;;;2.13;1.15;;;;;;;;;;5889629;28;20080;-73
2023/11/15 00:04:20;;;;;;;4.07;1.95;;;;;;;;;;5889553;28;20060;-73
2023/11/15 00:07:11;;;;;;;3.35;1.85;;;;;;;;;;5889653;28;20068;-73
2023/11/15 00:10:03;;;;;;;6.82;1.42;;;;;;;;;;5905173;28;20132;-74
2023/11/15 00:12:54;;;;;;;1.95;1.25;;;;;;;;;;5889928;28;20060;-73
2023/11/15 00:15:45;;;;;;;2.70;1.13;;;;;;;;;;5889534;28;20056;-74
2023/11/15 00:18:37;;;;;;;4.03;1.35;;;;;;;;;;5888960;28;20044;-73
2023/11/15 00:21:28;;;;;;;5.22;1.52;;;;;;;;;;5889442;28;20053;-74
2023/11/15 00:24:19;;;;;;;2.10;1.30;;;;;;;;;;5889339;28;20049;-74
2023/11/15 00:27:11;;;;;;;1.00;0.85;;;;;;;;;;5889375;28;20056;-74
2023/11/15 00:30:03;;;;;;;2.03;1.65;;;;;;;;;;5889321;28;20053;-74
2023/11/15 00:32:53;;;;;;;1.58;1.02;;;;;;;;;;5888453;28;20053;-74
2023/11/15 00:35:45;;;;;;;2.58;1.63;;;;;;;;;;5904251;28;20134;-74
2023/11/15 00:38:35;;;;;;;1.63;1.42;;;;;;;;;;5888895;28;20064;-74
2023/11/15 00:41:27;;;;;;;2.60;1.52;;;;;;;;;;5888736;28;20453;-74
2023/11/15 00:44:18;;;;;;;2.38;1.38;;;;;;;;;;5888757;28;20052;-73
2023/11/15 00:47:08;;;;;;;3.22;1.60;;;;;;;;;;5888756;28;20132;-75
2023/11/15 00:49:59;;;;;;;2.03;1.80;;;;;;;;;;5888952;28;20447;-74
2023/11/15 00:52:50;;;;;;;2.65;1.75;;;;;;;;;;5888673;28;20052;-74
2023/11/15 00:55:41;;;;;;;5.03;2.67;;;;;;;;;;5888881;28;20053;-73
2023/11/15 00:58:38;;;;;;;6.00;1.95;;;;;;;;;;5888447;28;20057;-73
2023/11/15 01:01:29;;;;;;;2.00;1.02;;;;;;;;;;5885074;28;20421;-74
2023/11/15 01:04:24;;;;;;;2.35;1.65;;;;;;;;;;5878245;28;20431;-74
2023/11/15 01:07:15;;;;;;;1.75;1.13;;;;;;;;;;5888099;28;20049;-73
2023/11/15 01:10:06;;;;;;;1.55;0.90;;;;;;;;;;5888495;28;20064;-74
2023/11/15 01:12:57;;;;;;;0.88;0.88;;;;;;;;;;5888689;28;20056;-73
2023/11/15 01:15:48;;;;;;;2.30;1.23;;;;;;;;;;5888105;28;20060;-74
2023/11/15 01:18:39;;;;;;;2.28;1.00;;;;;;;;;;5887851;28;20055;-73
2023/11/15 01:21:30;;;;;;;3.45;1.52;;;;;;;;;;5887953;28;20125;-73
2023/11/15 01:24:21;;;;;;;1.70;1.23;;;;;;;;;;5888058;28;20056;-74
2023/11/15 01:27:12;;;;;;;2.20;1.30;;;;;;;;;;5887989;28;20049;-73
2023/11/15 01:30:03;;;;;;;2.67;1.55;;;;;;;;;;5887951;28;20045;-73
2023/11/15 01:32:55;;;;;;;1.02;0.93;;;;;;;;;;5888135;28;20064;-73
2023/11/15 01:35:46;;;;;;;1.83;1.13;;;;;;;;;;5887717;28;20060;-74
2023/11/15 01:38:37;;;;;;;2.20;1.35;;;;;;;;;;5887578;28;20049;-74
2023/11/15 01:41:28;;;;;;;1.63;1.33;;;;;;;;;;5887472;28;20152;-73
2023/11/15 01:44:19;;;;;;;15.10;1.90;;;;;;;;;;5887570;28;20578;-73
2023/11/15 01:47:10;;;;;;;2.47;0.82;;;;;;;;;;5887550;28;20045;-73
2023/11/15 01:50:05;;;;;;;10.75;2.45;;;;;;;;;;5887577;28;20048;-73
2023/11/15 01:52:56;;;;;;;1.48;1.13;;;;;;;;;;5886641;28;20700;-74
2023/11/15 01:55:48;;;;;;;1.65;1.05;;;;;;;;;;5886200;28;20045;-74
2023/11/15 01:58:39;;;;;;;0.73;0.73;;;;;;;;;;5887282;28;20517;-74
2023/11/15 02:01:32;;;;;;;0.98;0.93;;;;;;;;;;5886029;28;20045;-73
2023/11/15 02:04:23;;;;;;;2.22;1.13;;;;;;;;;;5885975;28;20131;-73
2023/11/15 02:07:14;;;;;;;0.63;0.63;;;;;;;;;;5886898;28;20041;-73
2023/11/15 02:10:07;;;;;;;0.73;0.63;;;;;;;;;;5887215;28;20052;-73
2023/11/15 02:12:58;;;;;;;1.08;0.75;;;;;;;;;;5887351;28;20045;-74
2023/11/15 02:15:49;;;;;;;2.17;0.93;;;;;;;;;;5886979;28;20049;-73
2023/11/15 02:18:40;;;;;;;2.10;0.80;;;;;;;;;;5886616;28;20052;-73
2023/11/15 02:21:31;;;;;;;1.45;0.70;;;;;;;;;;5885130;28;20410;-73
2023/11/15 02:24:22;;;;;;;0.73;0.73;;;;;;;;;;5886596;28;20052;-73
2023/11/15 02:27:13;;;;;;;0.85;0.70;;;;;;;;;;5884969;28;20060;-73
2023/11/15 02:30:05;;;;;;;1.70;1.38;;;;;;;;;;5901774;28;20477;-74
2023/11/15 02:32:56;;;;;;;5.05;1.15;;;;;;;;;;5886903;28;20049;-73
2023/11/15 02:35:47;;;;;;;1.35;1.20;;;;;;;;;;5885078;28;20045;-74
2023/11/15 02:38:39;;;;;;;0.52;0.52;;;;;;;;;;5886365;28;20061;-74
2023/11/15 02:41:30;;;;;;;4.40;1.05;;;;;;;;;;5886290;28;20053;-75
2023/11/15 02:44:21;;;;;;;0.82;0.82;;;;;;;;;;5886487;28;20061;-74
2023/11/15 02:47:12;;;;;;;0.93;0.77;;;;;;;;;;5886263;28;20049;-74
2023/11/15 02:50:03;;;;;;;1.50;1.15;;;;;;;;;;5886192;28;20060;-74
2023/11/15 02:52:54;;;;;;;2.08;0.90;;;;;;;;;;5886307;28;20057;-73
2023/11/15 02:55:48;;;;;;;1.92;1.25;;;;;;;;;;5886094;28;20044;-73
2023/11/15 02:58:38;;;;;;;0.73;0.70;;;;;;;;;;5886111;28;20057;-73
2023/11/15 03:01:29;;;;;;;0.80;0.80;;;;;;;;;;5885904;28;20045;-73
2023/11/15 03:04:20;;;;;;;0.75;0.70;;;;;;;;;;5886087;28;20132;-72
2023/11/15 03:07:13;;;;;;;1.73;1.13;;;;;;;;;;5885901;28;20499;-73
2023/11/15 03:10:08;;;;;;;0.77;0.70;;;;;;;;;;5885993;28;20092;-72
2023/11/15 03:12:59;;;;;;;2.40;1.15;;;;;;;;;;5886001;28;20049;-72
2023/11/15 03:15:50;;;;;;;3.05;1.70;;;;;;;;;;5886003;28;20048;-72
2023/11/15 03:18:42;;;;;;;1.08;0.98;;;;;;;;;;5885688;28;20055;-72
2023/11/15 03:21:33;;;;;;;0.77;0.77;;;;;;;;;;5885663;28;20174;-72
2023/11/15 03:24:24;;;;;;;1.33;1.23;;;;;;;;;;5885826;28;20057;-73
2023/11/15 03:27:17;;;;;;;0.77;0.70;;;;;;;;;;5885724;28;20060;-72
2023/11/15 03:30:08;;;;;;;1.63;0.70;;;;;;;;;;5885927;28;20059;-72
2023/11/15 03:32:59;;;;;;;1.95;1.33;;;;;;;;;;5884875;28;20060;-72
2023/11/15 03:35:50;;;;;;;1.75;1.08;;;;;;;;;;5885925;28;20505;-72
2023/11/15 03:38:41;;;;;;;0.65;0.65;;;;;;;;;;5885576;28;20048;-72
2023/11/15 03:41:32;;;;;;;0.82;0.82;;;;;;;;;;5885255;28;20410;-72
2023/11/15 03:44:23;;;;;;;0.93;0.47;;;;;;;;;;5885689;28;20053;-72
2023/11/15 03:47:14;;;;;;;2.47;1.17;;;;;;;;;;5885399;28;20048;-72
2023/11/15 03:50:05;;;;;;;0.50;0.50;;;;;;;;;;5885666;28;20706;-72
2023/11/15 03:52:56;;;;;;;0.60;0.60;;;;;;;;;;5885839;28;20049;-72
2023/11/15 03:55:47;;;;;;;0.88;0.77;;;;;;;;;;5885382;28;20047;-72
2023/11/15 03:58:40;;;;;;;2.22;0.70;;;;;;;;;;5870520;28;20046;-72
2023/11/15 04:01:32;;;;;;;0.90;0.85;;;;;;;;;;5862049;28;20496;-72
2023/11/15 04:04:25;;;;;;;4.50;1.23;;;;;;;;;;5862028;28;20056;-72
2023/11/15 04:07:16;;;;;;;1.42;0.90;;;;;;;;;;5861976;28;20050;-72
2023/11/15 04:10:09;;;;;;;0.77;0.77;;;;;;;;;;5862037;28;20048;-72
2023/11/15 04:12:59;;;;;;;3.85;0.85;;;;;;;;;;5861221;28;20049;-72
2023/11/15 04:15:51;;;;;;;1.00;0.88;;;;;;;;;;5862179;28;20056;-71
2023/11/15 04:18:43;;;;;;;0.40;0.40;;;;;;;;;;5862000;28;20430;-71
2023/11/15 04:21:33;;;;;;;0.88;0.50;;;;;;;;;;5861586;28;20057;-72
2023/11/15 04:24:24;;;;;;;1.33;1.10;;;;;;;;;;5862569;28;20049;-72
2023/11/15 04:27:15;;;;;;;0.75;0.70;;;;;;;;;;5866139;28;20053;-72
2023/11/15 04:30:09;;;;;;;2.03;1.25;;;;;;;;;;5866033;28;20113;-72
2023/11/15 04:33:00;;;;;;;2.25;0.98;;;;;;;;;;5866415;28;20049;-72
2023/11/15 04:35:51;;;;;;;0.95;0.88;;;;;;;;;;5866061;28;20119;-71
2023/11/15 04:38:42;;;;;;;0.88;0.88;;;;;;;;;;5865742;28;20047;-71
2023/11/15 04:41:34;;;;;;;0.73;0.73;;;;;;;;;;5865478;28;20053;-72
2023/11/15 04:44:27;;;;;;;0.70;0.70;;;;;;;;;;5865710;28;20049;-72
2023/11/15 04:47:18;;;;;;;1.58;0.93;;;;;;;;;;5865537;28;20522;-72
2023/11/15 04:50:09;;;;;;;0.73;0.57;;;;;;;;;;5864238;28;20057;-72
2023/11/15 04:53:00;;;;;;;0.55;0.55;;;;;;;;;;5868693;28;20051;-71
2023/11/15 04:55:51;;;;;;;0.73;0.57;;;;;;;;;;5876489;28;20049;-71
2023/11/15 04:58:41;;;;;;;0.82;0.50;;;;;;;;;;5873050;28;20060;-71
2023/11/15 05:01:32;;;;;;;3.30;0.80;;;;;;;;;;5875326;28;20050;-71
2023/11/15 05:04:23;;;;;;;1.17;0.52;;;;;;;;;;5876735;28;20844;-72
2023/11/15 05:07:15;;;;;;;1.67;1.05;;;;;;;;;;5884920;28;20525;-72
2023/11/15 05:10:07;;;;;;;0.45;0.45;;;;;;;;;;5888504;28;20045;-72
2023/11/15 05:12:59;;;;;;;0.57;0.57;;;;;;;;;;5868533;28;20079;-72
2023/11/15 05:15:49;;;;;;;0.70;0.70;;;;;;;;;;5865500;28;20149;-72
2023/11/15 05:18:40;;;;;;;0.45;0.45;;;;;;;;;;5875706;28;20052;-72
2023/11/15 05:21:32;;;;;;;0.80;0.68;;;;;;;;;;5876565;28;20045;-73
2023/11/15 05:24:23;;;;;;;2.80;0.80;;;;;;;;;;5871938;28;20053;-73
2023/11/15 05:27:14;;;;;;;0.73;0.50;;;;;;;;;;5864823;28;20045;-73
2023/11/15 05:30:06;;;;;;;1.13;0.70;;;;;;;;;;5864991;28;20041;-73
2023/11/15 05:32:58;;;;;;;0.50;0.50;;;;;;;;;;5874804;28;20048;-72
2023/11/15 05:35:49;;;;;;;1.20;0.90;;;;;;;;;;5888030;28;20048;-72
2023/11/15 05:38:40;;;;;;;0.57;0.57;;;;;;;;;;5891583;28;20045;-72
2023/11/15 05:41:31;;;;;;;0.88;0.82;;;;;;;;;;5864363;28;20053;-73
2023/11/15 05:44:23;;;;;;;0.50;0.50;;;;;;;;;;5865282;28;20498;-73
2023/11/15 05:47:15;;;;;;;3.85;1.67;;;;;;;;;;5865003;28;20415;-72
2023/11/15 05:50:10;;;;;;;0.55;0.55;;;;;;;;;;5864517;28;20049;-72
2023/11/15 05:53:01;;;;;;;0.65;0.63;;;;;;;;;;5864769;28;20061;-72
2023/11/15 05:55:52;;;;;;;0.80;0.80;;;;;;;;;;5864858;28;20076;-72
2023/11/15 05:58:43;;;;;;;1.30;0.82;;;;;;;;;;5864474;28;20053;-72
2023/11/15 06:01:37;;;;;;;0.60;0.57;;;;;;;;;;5864490;28;20503;-72
2023/11/15 06:04:28;;;;;;;0.80;0.70;;;;;;;;;;5864781;28;20060;-72
2023/11/15 06:07:19;;;;;;;2.20;1.23;;;;;;;;;;5864420;28;20057;-72
2023/11/15 06:10:11;;;;;;;1.10;1.00;;;;;;;;;;5864356;28;20415;-72
2023/11/15 06:13:02;;;;;;;1.25;1.10;;;;;;;;;;5879374;28;20053;-72
2023/11/15 06:15:52;;;;;;;0.80;0.80;;;;;;;;;;5862930;28;20053;-72
2023/11/15 06:18:44;;;;;;;0.82;0.80;;;;;;;;;;5862255;28;20415;-72
2023/11/15 06:21:36;;;;;;;1.20;1.08;;;;;;;;;;5863268;28;20128;-72
2023/11/15 06:24:26;;;;;;;4.45;1.98;;;;;;;;;;5863560;28;20052;-72
2023/11/15 06:27:17;;;;;;;0.60;0.60;;;;;;;;;;5863325;28;20057;-72
2023/11/15 06:30:08;;;;;;;2.05;1.20;;;;;;;;;;5863461;28;20042;-72
2023/11/15 06:33:00;;;;;;;2.67;1.70;;;;;;;;;;5863833;28;20400;-72
2023/11/15 06:35:51;;;;;;;1.52;1.42;;;;;;;;;;5863317;28;20045;-72
2023/11/15 06:38:41;;;;;;;2.38;1.67;;;;;;;;;;5863348;28;20522;-72
2023/11/15 06:41:34;;;;;;;2.15;1.98;;;;;;;;;;5863066;28;20053;-72
2023/11/15 06:44:25;;;;;;;8.55;5.05;;;;;;;;;;5863109;28;20056;-72
2023/11/15 06:47:16;;;;;;;5.35;3.55;;;;;;;;;;5862559;28;20060;-72
2023/11/15 06:50:07;;;;;;;1.63;1.33;;;;;;;;;;5862979;28;20056;-71
2023/11/15 06:52:58;;;;;;;2.88;1.15;;;;;;;;;;5862396;28;20496;-71
2023/11/15 06:55:49;;;;;;;4.15;1.02;;;;;;;;;;5861514;28;20057;-72
2023/11/15 06:58:40;;;;;;;2.03;1.60;;;;;;;;;;5862433;28;20041;-72
2023/11/15 07:01:30;;;;;;;2.00;1.83;;;;;;;;;;5862549;28;20056;-73
2023/11/15 07:04:22;;;;;;;1.73;1.63;;;;;;;;;;5862745;28;20579;-72
2023/11/15 07:07:13;;;;;;;11.02;7.10;;;;;;;;;;5862824;28;20052;-72
2023/11/15 07:10:05;;;;;;;4.07;2.78;;;;;;;;;;5862745;28;20171;-72
2023/11/15 07:13:00;;;;;;;3.47;2.85;;;;;;;;;;5863277;28;20467;-72
2023/11/15 07:15:50;;;;;;;5.38;4.60;;;;;;;;;;5863005;28;20049;-72
2023/11/15 07:18:41;;;;;;;17.42;5.32;;;;;;;;;;5862247;28;20129;-72
2023/11/15 07:21:32;;;;;;;3.55;2.80;;;;;;;;;;5862486;28;20060;-72
2023/11/15 07:24:25;;;;;;;7.03;4.32;;;;;;;;;;5862463;28;20049;-72
2023/11/15 07:27:17;;;;;;;4.28;3.53;;;;;;;;;;5862291;28;20057;-72
2023/11/15 07:30:08;;;;;;;7.72;6.05;;;;;;;;;;5862499;28;20053;-72
2023/11/15 07:33:00;;;;;;;5.82;3.85;;;;;;;;;;5862782;28;20513;-72
2023/11/15 07:35:50;;;;;;;8.55;5.85;;;;;;;;;;5862503;28;20076;-72
2023/11/15 07:38:41;;;;;;;3.97;3.17;;;;;;;;;;5860949;28;20050;-72
2023/11/15 07:41:36;;;;;;;7.50;4.38;;;;;;;;;;5862005;28;20053;-72
2023/11/15 07:44:29;;;;;;;4.78;3.80;;;;;;;;;;5862221;28;20073;-72
2023/11/15 07:47:21;;;;;;;5.60;3.83;;;;;;;;;;5861950;28;20053;-72
2023/11/15 07:50:15;;;;;;;6.32;3.78;;;;;;;;;;5862030;28;20038;-72
2023/11/15 07:53:06;;;;;;;3.38;2.83;;;;;;;;;;5862057;28;20396;-72
2023/11/15 07:55:57;;;;;;;5.22;2.90;;;;;;;;;;5862332;28;20054;-71
2023/11/15 07:58:50;;;;;;;9.10;4.20;;;;;;;;;;5862173;28;20050;-72
2023/11/15 08:01:41;;;;;;;2.70;2.25;;;;;;;;;;5865974;28;20045;-72
2023/11/15 08:04:37;;;;;;;2.92;2.53;;;;;;;;;;5866476;28;20050;-72
2023/11/15 08:07:28;;;;;;;2.00;1.70;;;;;;;;;;5866630;28;20341;-72
2023/11/15 08:10:19;;;;;;;4.90;2.40;;;;;;;;;;5866316;28;20105;-72
2023/11/15 08:13:10;;;;;;;1.60;1.50;;;;;;;;;;5866161;28;20054;-73
2023/11/15 08:16:01;;;;;;;4.25;1.67;;;;;;;;;;5865928;28;20049;-72
2023/11/15 08:18:51;;;;;;;1.75;1.65;;;;;;;;;;5865131;28;20045;-72
2023/11/15 08:21:42;;;;;;;2.50;1.90;;;;;;;;;;5865855;28;20057;-72
2023/11/15 08:24:33;;;;;;;2.25;2.05;;;;;;;;;;5866017;28;20421;-72
2023/11/15 08:27:24;;;;;;;3.95;2.15;;;;;;;;;;5865958;28;20542;-72
2023/11/15 08:30:18;;;;;;;4.18;3.03;;;;;;;;;;5865762;28;20054;-72
2023/11/15 08:33:09;;;;;;;1.25;1.15;;;;;;;;;;5865899;28;20041;-72
2023/11/15 08:36:00;;;;;;;1.88;1.67;;;;;;;;;;5866329;28;20041;-72
2023/11/15 08:38:52;;;;;;;2.88;1.42;;;;;;;;;;5865923;28;20033;-72
2023/11/15 08:41:45;;;;;;;2.35;1.85;;;;;;;;;;5865812;28;20037;-72
2023/11/15 08:44:43;;;;;;;4.30;1.98;;;;;;;;;;5865552;28;20080;-72
2023/11/15 08:47:33;;;;;;;5.13;1.30;;;;;;;;;;5865514;28;20053;-72
2023/11/15 08:50:24;;;;;;;2.15;1.27;;;;;;;;;;5865535;28;20056;-72
2023/11/15 08:53:18;;;;;;;1.42;1.33;;;;;;;;;;5865330;28;20415;-71
2023/11/15 08:56:13;;;;;;;4.65;1.95;;;;;;;;;;5865414;28;20056;-72
2023/11/15 08:59:04;;;;;;;1.67;1.38;;;;;;;;;;5864153;28;20469;-72
2023/11/15 09:01:56;;;;;;;2.97;1.15;;;;;;;;;;5865365;28;20061;-72
2023/11/15 09:04:47;;;;;;;1.90;1.00;;;;;;;;;;5865091;28;20049;-72
2023/11/15 09:07:39;;;;;;;1.02;0.57;;;;;;;;;;5865123;28;20578;-72
2023/11/15 09:10:31;;;;;;;0.98;0.88;;;;;;;;;;5864641;28;20120;-72
2023/11/15 09:13:23;;;;;;;0.35;0.35;;;;;;;;;;5864811;28;20130;-71
2023/11/15 09:16:14;;;;;;;0.55;0.52;;;;;;;;;;5864777;28;20052;-72
2023/11/15 09:19:05;;;;;;;0.55;0.55;;;;;;;;;;5865001;28;20517;-71
2023/11/15 09:21:55;;;;;;;0.93;0.52;;;;;;;;;;5865283;28;20045;-72
2023/11/15 09:24:46;;;;;;;1.27;1.08;;;;;;;;;;5864784;28;20053;-72
2023/11/15 09:27:42;;;;;;;0.95;0.85;;;;;;;;;;5864612;28;20053;-72
2023/11/15 09:30:34;;;;;;;0.52;0.52;;;;;;;;;;5864686;28;20052;-72
2023/11/15 09:33:25;;;;;;;1.38;0.70;;;;;;;;;;5864553;28;20052;-72
2023/11/15 09:36:18;;;;;;;1.15;1.02;;;;;;;;;;5864269;28;20045;-72
2023/11/15 09:39:09;;;;;;;0.95;0.90;;;;;;;;;;5863046;28;20041;-72
2023/11/15 09:42:02;;;;;;;4.50;1.52;;;;;;;;;;5864493;28;20053;-72
2023/11/15 09:44:53;;;;;;;1.05;0.88;;;;;;;;;;5863328;28;20060;-72
2023/11/15 09:47:52;;;;;;;0.90;0.80;;;;;;;;;;5864257;28;20128;-71
2023/11/15 09:50:48;;;;;;;1.23;0.85;;;;;;;;;;5863006;28;20056;-72
2023/11/15 09:53:40;;;;;;;1.00;0.52;;;;;;;;;;5864246;28;20551;-71
2023/11/15 09:56:30;;;;;;;0.55;0.55;;;;;;;;;;5863709;28;20049;-72
2023/11/15 09:59:23;;;;;;;1.08;1.00;;;;;;;;;;5864027;28;20599;-72
2023/11/15 10:02:14;;;;;;;0.98;0.88;;;;;;;;;;5863950;28;20415;-72
2023/11/15 10:05:23;;;;;;;0.77;0.55;;;;;;;;;;5863929;28;20072;-72
2023/11/15 10:08:19;;;;;;;0.60;0.60;;;;;;;;;;5863831;28;20053;-72
2023/11/15 10:11:12;;;;;;;1.52;0.70;;;;;;;;;;5863676;28;20041;-72
2023/11/15 10:14:15;;;;;;;0.80;0.80;;;;;;;;;;5863598;28;20041;-72
2023/11/15 10:17:06;;;;;;;8.38;0.65;;;;;;;;;;5863339;28;20057;-73
2023/11/15 10:20:20;;;;;;;0.45;0.40;;;;;;;;;;5864169;28;20048;-72
2023/11/15 10:23:12;;;;;;;0.57;0.57;;;;;;;;;;5862492;28;20045;-72
2023/11/15 10:26:05;;;;;;;0.75;0.75;;;;;;;;;;5863643;28;20400;-72
2023/11/15 10:29:08;;;;;;;0.50;0.50;;;;;;;;;;5863940;28;20077;-72
2023/11/15 10:32:00;;;;;;;1.95;1.20;;;;;;;;;;5863683;28;20128;-72
2023/11/15 10:34:55;;;;;;;1.20;0.73;;;;;;;;;;5863582;28;20136;-73
2023/11/15 10:37:48;;;;;;;1.48;1.02;;;;;;;;;;5863172;28;20099;-73
2023/11/15 10:40:39;;;;;;;0.68;0.68;;;;;;;;;;5863123;28;20054;-73
2023/11/15 10:43:31;;;;;;;1.95;1.25;;;;;;;;;;5863155;28;20503;-73
2023/11/15 10:46:31;;;;;;;0.63;0.63;;;;;;;;;;5863206;28;20482;-73
2023/11/15 10:49:24;;;;;;;1.17;0.90;;;;;;;;;;5863235;28;20053;-73
2023/11/15 10:52:16;;;;;;;0.52;0.50;;;;;;;;;;5863129;28;20124;-72
2023/11/15 10:55:08;;;;;;;1.20;0.85;;;;;;;;;;5861798;28;20050;-72
2023/11/15 10:58:02;;;;;;;1.50;0.93;;;;;;;;;;5862226;28;20058;-71
2023/11/15 11:00:57;;;;;;;0.90;0.85;;;;;;;;;;5863153;28;20048;-71
2023/11/15 11:03:54;;;;;;;0.52;0.52;;;;;;;;;;5861687;28;20042;-71
2023/11/15 11:06:58;;;;;;;0.43;0.40;;;;;;;;;;5862852;28;20103;-70
2023/11/15 11:10:09;;;;;;;0.73;0.47;;;;;;;;;;5862869;28;20180;-71
2023/11/15 11:13:15;;;;;;;1.65;1.17;;;;;;;;;;5861524;28;20048;-71
2023/11/15 11:16:26;;;;;;;1.05;0.63;;;;;;;;;;5862326;28;20049;-72
2023/11/15 11:19:28;;;;;;;1.17;1.02;;;;;;;;;;5862845;28;20484;-72
2023/11/15 11:22:19;;;;;;;1.27;1.17;;;;;;;;;;5862478;28;20075;-72
2023/11/15 11:25:21;;;;;;;6.95;1.75;;;;;;;;;;5862750;28;20504;-72
2023/11/15 11:28:12;;;;;;;1.50;1.10;;;;;;;;;;5861320;28;20045;-72
2023/11/15 11:31:17;;;;;;;3.25;0.65;;;;;;;;;;5862655;28;20072;-72
2023/11/15 11:34:14;;;;;;;1.15;1.05;;;;;;;;;;5864630;28;20076;-71
2023/11/15 11:37:05;;;;;;;0.30;0.30;;;;;;;;;;5866497;28;20275;-72
2023/11/15 11:39:57;;;;;;;0.45;0.40;;;;;;;;;;5867596;28;20049;-72
2023/11/15 11:42:52;;;;;;;3.35;1.33;;;;;;;;;;5867200;28;20049;-72
2023/11/15 11:45:45;;;;;;;9.60;2.13;;;;;;;;;;5867077;28;20052;-72
2023/11/15 11:48:37;;;;;;;1.05;0.95;;;;;;;;;;5866849;28;20176;-72
2023/11/15 11:51:28;;;;;;;0.63;0.60;;;;;;;;;;5866895;28;20525;-72
2023/11/15 11:54:23;;;;;;;0.38;0.38;;;;;;;;;;5866960;28;20495;-72
2023/11/15 11:57:24;;;;;;;0.47;0.47;;;;;;;;;;5866789;28;20132;-72
2023/11/15 12:00:16;;;;;;;2.83;1.35;;;;;;;;;;5866685;28;20050;-71
2023/11/15 12:03:11;;;;;;;0.60;0.60;;;;;;;;;;5866594;28;20052;-72
2023/11/15 12:06:11;;;;;;;0.30;0.30;;;;;;;;;;5866433;28;20052;-72
2023/11/15 12:09:02;;;;;;;0.60;0.60;;;;;;;;;;5865190;28;20491;-73
2023/11/15 12:11:53;;;;;;;0.75;0.75;;;;;;;;;;5866893;28;20077;-72
2023/11/15 12:14:52;;;;;;;0.60;0.60;;;;;;;;;;5884957;28;20519;-72
2023/11/15 12:17:45;;;;;;;0.25;0.25;;;;;;;;;;5889465;28;20506;-72
2023/11/15 12:20:40;;;;;;;0.50;0.43;;;;;;;;;;5904420;28;20052;-72
2023/11/15 12:23:31;;;;;;;1.02;0.77;;;;;;;;;;5889296;28;20049;-71
2023/11/15 12:26:23;;;;;;;2.90;1.45;;;;;;;;;;5889224;28;20064;-71
2023/11/15 12:29:26;;;;;;;0.28;0.28;;;;;;;;;;5889426;28;20049;-70
2023/11/15 12:32:18;;;;;;;1.33;0.95;;;;;;;;;;5888966;28;20091;-71
2023/11/15 12:35:10;;;;;;;0.35;0.35;;;;;;;;;;5871628;28;20041;-71
2023/11/15 12:38:05;;;;;;;1.90;0.60;;;;;;;;;;5889942;28;20049;-72
2023/11/15 12:41:04;;;;;;;5.00;2.22;;;;;;;;;;5906002;28;20045;-72
2023/11/15 12:44:01;;;;;;;3.60;1.35;;;;;;;;;;5889476;28;20041;-71
2023/11/15 12:46:59;;;;;;;0.70;0.63;;;;;;;;;;5889197;28;20069;-72
2023/11/15 12:49:50;;;;;;;0.57;0.57;;;;;;;;;;5873042;28;20053;-72
2023/11/15 12:52:41;;;;;;;2.65;0.80;;;;;;;;;;5865663;28;20045;-72
2023/11/15 12:55:53;;;;;;;0.55;0.55;;;;;;;;;;5866120;28;20430;-72
2023/11/15 12:58:45;;;;;;;0.40;0.40;;;;;;;;;;5865280;28;20041;-71
2023/11/15 13:01:40;;;;;;;0.75;0.60;;;;;;;;;;5865808;28;20136;-70
2023/11/15 13:05:03;;;;;;;1.48;1.05;;;;;;;;;;5865166;28;20384;-72
2023/11/15 13:07:53;;;;;;;0.68;0.68;;;;;;;;;;5864594;28;20049;-72
2023/11/15 13:10:44;;;;;;;0.50;0.50;;;;;;;;;;5864891;28;20434;-72
2023/11/15 13:13:39;;;;;;;0.60;0.60;;;;;;;;;;5865929;28;20053;-72
2023/11/15 13:16:32;;;;;;;1.05;1.02;;;;;;;;;;5866226;28;20048;-72
2023/11/15 13:19:24;;;;;;;2.13;1.60;;;;;;;;;;5865811;28;20081;-72
2023/11/15 13:22:15;;;;;;;0.55;0.55;;;;;;;;;;5865646;28;20045;-72
2023/11/15 13:25:10;;;;;;;1.15;1.00;;;;;;;;;;5865706;28;20045;-72
2023/11/15 13:28:03;;;;;;;1.15;0.90;;;;;;;;;;5865705;28;20069;-72
2023/11/15 13:30:54;;;;;;;0.57;0.57;;;;;;;;;;5866206;28;20475;-72
2023/11/15 13:33:45;;;;;;;1.50;1.25;;;;;;;;;;5865200;28;20045;-71
2023/11/15 13:36:37;;;;;;;2.50;0.98;;;;;;;;;;5864322;28;20143;-72
2023/11/15 13:39:28;;;;;;;1.45;1.35;;;;;;;;;;5863380;28;20499;-72
2023/11/15 13:42:19;;;;;;;1.17;1.00;;;;;;;;;;5863429;28;20046;-72
2023/11/15 13:45:10;;;;;;;1.33;0.95;;;;;;;;;;5863107;28;20045;-72
2023/11/15 13:48:02;;;;;;;0.82;0.80;;;;;;;;;;5864499;28;20060;-72
2023/11/15 13:50:53;;;;;;;3.30;1.50;;;;;;;;;;5863639;28;20041;-72
2023/11/15 13:53:44;;;;;;;1.23;0.93;;;;;;;;;;5864323;28;20053;-71
2023/11/15 13:56:36;;;;;;;2.22;1.15;;;;;;;;;;5863463;28;20181;-72
2023/11/15 13:59:31;;;;;;;2.60;1.23;;;;;;;;;;5864124;28;20041;-72
2023/11/15 14:02:23;;;;;;;1.88;1.35;;;;;;;;;;5864026;28;20050;-72
2023/11/15 14:05:14;;;;;;;2.83;1.73;;;;;;;;;;5864160;28;20045;-71
2023/11/15 14:08:05;;;;;;;0.90;0.85;;;;;;;;;;5864151;28;20080;-72
2023/11/15 14:10:58;;;;;;;3.47;1.05;;;;;;;;;;5864530;28;20041;-71
2023/11/15 14:13:49;;;;;;;0.85;0.80;;;;;;;;;;5863861;28;20088;-72
2023/11/15 14:16:40;;;;;;;1.23;0.85;;;;;;;;;;5863654;28;20492;-72
2023/11/15 14:19:31;;;;;;;0.90;0.90;;;;;;;;;;5863837;28;20037;-72
2023/11/15 14:22:22;;;;;;;0.50;0.50;;;;;;;;;;5863495;28;20053;-72
2023/11/15 14:25:23;;;;;;;1.23;1.00;;;;;;;;;;5863823;28;20053;-72
2023/11/15 14:28:15;;;;;;;4.07;0.95;;;;;;;;;;5863555;28;20053;-72
2023/11/15 14:31:06;;;;;;;0.52;0.38;;;;;;;;;;5863379;28;20056;-71
2023/11/15 14:33:57;;;;;;;0.85;0.80;;;;;;;;;;5864110;28;20065;-71
2023/11/15 14:36:48;;;;;;;0.45;0.45;;;;;;;;;;5862022;28;20459;-72
2023/11/15 14:39:39;;;;;;;0.63;0.55;;;;;;;;;;5863410;28;20396;-71
2023/11/15 14:42:30;;;;;;;5.18;1.17;;;;;;;;;;5863132;28;20053;-72
2023/11/15 14:45:22;;;;;;;1.15;1.05;;;;;;;;;;5863366;28;20487;-72
2023/11/15 14:48:13;;;;;;;0.52;0.52;;;;;;;;;;5863004;28;20081;-72
2023/11/15 14:51:04;;;;;;;0.50;0.50;;;;;;;;;;5863162;28;20052;-72
2023/11/15 14:53:55;;;;;;;0.20;0.20;;;;;;;;;;5863498;28;20046;-71
2023/11/15 14:56:49;;;;;;;1.10;0.40;;;;;;;;;;5862858;28;20045;-72
2023/11/15 14:59:46;;;;;;;2.83;1.83;;;;;;;;;;5862892;28;20045;-72
2023/11/15 15:02:37;;;;;;;1.75;1.00;;;;;;;;;;5862676;28;20076;-72
2023/11/15 15:05:28;;;;;;;2.45;0.40;;;;;;;;;;5862852;28;20049;-72
2023/11/15 15:08:21;;;;;;;0.52;0.52;;;;;;;;;;5862270;28;20052;-72
2023/11/15 15:11:12;;;;;;;0.65;0.63;;;;;;;;;;5862736;28;20047;-72
2023/11/15 15:14:03;;;;;;;0.55;0.55;;;;;;;;;;5861470;28;20049;-72
2023/11/15 15:16:54;;;;;;;2.10;1.63;;;;;;;;;;5862884;28;20048;-72
2023/11/15 15:19:46;;;;;;;2.67;1.83;;;;;;;;;;5862663;28;20052;-72
2023/11/15 15:22:37;;;;;;;2.40;1.65;;;;;;;;;;5862280;28;20049;-72
2023/11/15 15:25:30;;;;;;;7.65;3.08;;;;;;;;;;5862493;28;20049;-72
2023/11/15 15:28:21;;;;;;;1.58;1.38;;;;;;;;;;5862418;28;20053;-72
2023/11/15 15:31:12;;;;;;;5.25;3.00;;;;;;;;;;5862346;28;20050;-72
2023/11/15 15:34:05;;;;;;;1.30;0.90;;;;;;;;;;5862603;28;20049;-72
2023/11/15 15:36:56;;;;;;;7.22;2.63;;;;;;;;;;5862783;28;20063;-72
2023/11/15 15:39:49;;;;;;;2.00;1.42;;;;;;;;;;5862346;28;20107;-72
2023/11/15 15:42:40;;;;;;;5.47;2.42;;;;;;;;;;5861967;28;20688;-72
2023/11/15 15:45:30;;;;;;;5.97;2.53;;;;;;;;;;5862390;28;20050;-72
2023/11/15 15:48:23;;;;;;;2.13;1.42;;;;;;;;;;5862037;28;20056;-72
2023/11/15 15:51:14;;;;;;;1.63;1.52;;;;;;;;;;5862148;28;20495;-72
2023/11/15 15:54:06;;;;;;;1.35;1.20;;;;;;;;;;5862037;28;20041;-72
2023/11/15 15:56:57;;;;;;;4.13;3.33;;;;;;;;;;5862542;28;20046;-72
2023/11/15 15:59:50;;;;;;;2.28;1.30;;;;;;;;;;5860659;28;20069;-72
2023/11/15 16:02:41;;;;;;;1.17;1.15;;;;;;;;;;5861881;28;20097;-72
2023/11/15 16:05:32;;;;;;;0.50;0.50;;;;;;;;;;5862006;28;20049;-71
2023/11/15 16:08:23;;;;;;;1.73;1.30;;;;;;;;;;5862086;28;20089;-71
2023/11/15 16:11:14;;;;;;;1.88;1.50;;;;;;;;;;5861655;28;20045;-72
2023/11/15 16:14:05;;;;;;;0.50;0.50;;;;;;;;;;5862113;28;20156;-72
2023/11/15 16:16:55;;;;;;;1.70;1.38;;;;;;;;;;5862070;28;20045;-72
2023/11/15 16:19:46;;;;;;;3.28;2.00;;;;;;;;;;5861971;28;20045;-72
2023/11/15 16:22:37;;;;;;;1.52;1.05;;;;;;;;;;5865917;28;20116;-72
2023/11/15 16:25:28;;;;;;;4.93;1.33;;;;;;;;;;5864880;28;20071;-71
2023/11/15 16:28:20;;;;;;;2.53;0.77;;;;;;;;;;5866172;28;20410;-72
2023/11/15 16:31:11;;;;;;;2.80;1.75;;;;;;;;;;5866055;28;20045;-72
2023/11/15 16:34:06;;;;;;;2.05;1.75;;;;;;;;;;5866042;28;20048;-71
2023/11/15 16:36:58;;;;;;;3.13;2.63;;;;;;;;;;5863735;28;20602;-72
2023/11/15 16:39:50;;;;;;;4.10;1.45;;;;;;;;;;5864453;28;20049;-71
2023/11/15 16:42:42;;;;;;;1.88;1.70;;;;;;;;;;5863666;28;20136;-72
2023/11/15 16:45:32;;;;;;;1.23;0.95;;;;;;;;;;5865776;28;20411;-72
2023/11/15 16:48:23;;;;;;;0.75;0.73;;;;;;;;;;5865657;28;20049;-72
2023/11/15 16:51:14;;;;;;;1.58;1.40;;;;;;;;;;5865489;28;20065;-71
2023/11/15 16:54:06;;;;;;;1.52;1.35;;;;;;;;;;5865527;28;20045;-71
2023/11/15 16:56:57;;;;;;;2.17;1.50;;;;;;;;;;5865966;28;20406;-71
2023/11/15 16:59:49;;;;;;;1.50;1.40;;;;;;;;;;5865478;28;20077;-72
2023/11/15 17:02:41;;;;;;;3.45;2.17;;;;;;;;;;5865360;28;20136;-72
2023/11/15 17:05:32;;;;;;;1.10;1.00;;;;;;;;;;5865380;28;20052;-71
2023/11/15 17:08:27;;;;;;;1.77;1.55;;;;;;;;;;5865240;28;20052;-71
2023/11/15 17:11:18;;;;;;;1.38;1.27;;;;;;;;;;5865322;28;20054;-72
2023/11/15 17:14:12;;;;;;;5.50;1.80;;;;;;;;;;5865095;28;20050;-71